sensor_id;sensor_type;location;lat;lon;timestamp;P1;durP1;ratioP1;P2;durP2;ratioP2
64199;SDS011;50516;52.272;5.136;2022-10-31T00:01:22;14.00;;;5.60;;
64199;SDS011;50516;52.272;5.136;2022-10-31T00:03:49;11.63;;;5.95;;
64199;SDS011;50516;52.272;5.136;2022-10-31T00:06:15;10.95;;;5.93;;
64199;SDS011;50516;52.272;5.136;2022-10-31T00:08:43;16.00;;;5.72;;
64199;SDS011;50516;52.272;5.136;2022-10-31T00:11:10;12.95;;;6.13;;
64199;SDS011;50516;52.272;5.136;2022-10-31T00:13:36;7.82;;;5.38;;
64199;SDS011;50516;52.272;5.136;2022-10-31T00:16:01;8.88;;;5.15;;
64199;SDS011;50516;52.272;5.136;2022-10-31T00:18:26;15.10;;;5.97;;
64199;SDS011;50516;52.272;5.136;2022-10-31T00:21:02;14.98;;;5.68;;
64199;SDS011;50516;52.272;5.136;2022-10-31T00:23:28;12.85;;;5.70;;
64199;SDS011;50516;52.272;5.136;2022-10-31T00:25:53;11.75;;;6.20;;
64199;SDS011;50516;52.272;5.136;2022-10-31T00:28:19;9.60;;;5.90;;
64199;SDS011;50516;52.272;5.136;2022-10-31T00:30:44;10.02;;;5.75;;
64199;SDS011;50516;52.272;5.136;2022-10-31T00:33:10;9.00;;;5.72;;
64199;SDS011;50516;52.272;5.136;2022-10-31T00:35:35;11.32;;;6.53;;
64199;SDS011;50516;52.272;5.136;2022-10-31T00:38:00;11.90;;;5.75;;
64199;SDS011;50516;52.272;5.136;2022-10-31T00:40:26;11.55;;;6.15;;
64199;SDS011;50516;52.272;5.136;2022-10-31T00:42:51;12.95;;;6.07;;
64199;SDS011;50516;52.272;5.136;2022-10-31T00:45:17;11.05;;;6.25;;
64199;SDS011;50516;52.272;5.136;2022-10-31T00:47:42;10.05;;;6.07;;
64199;SDS011;50516;52.272;5.136;2022-10-31T00:50:07;13.18;;;5.85;;
64199;SDS011;50516;52.272;5.136;2022-10-31T00:52:33;11.95;;;5.75;;
64199;SDS011;50516;52.272;5.136;2022-10-31T00:54:58;14.32;;;5.63;;
64199;SDS011;50516;52.272;5.136;2022-10-31T00:57:24;9.40;;;5.45;;
64199;SDS011;50516;52.272;5.136;2022-10-31T00:59:49;8.68;;;5.15;;
64199;SDS011;50516;52.272;5.136;2022-10-31T01:02:14;9.50;;;5.30;;
64199;SDS011;50516;52.272;5.136;2022-10-31T01:04:40;11.20;;;5.88;;
64199;SDS011;50516;52.272;5.136;2022-10-31T01:07:05;7.60;;;5.07;;
64199;SDS011;50516;52.272;5.136;2022-10-31T01:09:30;10.07;;;5.18;;
64199;SDS011;50516;52.272;5.136;2022-10-31T01:11:55;11.40;;;5.63;;
64199;SDS011;50516;52.272;5.136;2022-10-31T01:14:21;11.65;;;5.93;;
64199;SDS011;50516;52.272;5.136;2022-10-31T01:16:46;13.50;;;5.30;;
64199;SDS011;50516;52.272;5.136;2022-10-31T01:19:12;8.57;;;5.32;;
64199;SDS011;50516;52.272;5.136;2022-10-31T01:21:37;9.18;;;5.63;;
64199;SDS011;50516;52.272;5.136;2022-10-31T01:24:02;11.90;;;5.88;;
64199;SDS011;50516;52.272;5.136;2022-10-31T01:26:29;14.48;;;5.90;;
64199;SDS011;50516;52.272;5.136;2022-10-31T01:29:00;9.30;;;4.93;;
64199;SDS011;50516;52.272;5.136;2022-10-31T01:31:31;8.07;;;5.20;;
64199;SDS011;50516;52.272;5.136;2022-10-31T01:33:58;12.40;;;5.70;;
64199;SDS011;50516;52.272;5.136;2022-10-31T01:36:25;9.32;;;5.05;;
64199;SDS011;50516;52.272;5.136;2022-10-31T01:39:03;12.88;;;5.85;;
64199;SDS011;50516;52.272;5.136;2022-10-31T01:41:37;14.15;;;6.43;;
64199;SDS011;50516;52.272;5.136;2022-10-31T01:46:43;10.57;;;5.90;;
64199;SDS011;50516;52.272;5.136;2022-10-31T01:49:11;9.60;;;5.18;;
64199;SDS011;50516;52.272;5.136;2022-10-31T01:51:46;16.00;;;6.35;;
64199;SDS011;50516;52.272;5.136;2022-10-31T01:54:17;13.88;;;6.00;;
64199;SDS011;50516;52.272;5.136;2022-10-31T01:56:47;10.10;;;6.40;;
64199;SDS011;50516;52.272;5.136;2022-10-31T01:59:16;9.40;;;6.22;;
64199;SDS011;50516;52.272;5.136;2022-10-31T02:01:45;8.55;;;5.78;;
64199;SDS011;50516;52.272;5.136;2022-10-31T02:04:11;11.23;;;6.88;;
64199;SDS011;50516;52.272;5.136;2022-10-31T02:06:38;9.15;;;6.22;;
64199;SDS011;50516;52.272;5.136;2022-10-31T02:09:10;17.10;;;7.07;;
64199;SDS011;50516;52.272;5.136;2022-10-31T02:11:38;11.85;;;5.55;;
64199;SDS011;50516;52.272;5.136;2022-10-31T02:14:03;9.18;;;5.63;;
64199;SDS011;50516;52.272;5.136;2022-10-31T02:16:29;11.88;;;6.03;;
64199;SDS011;50516;52.272;5.136;2022-10-31T02:18:55;12.27;;;7.10;;
64199;SDS011;50516;52.272;5.136;2022-10-31T02:21:37;12.25;;;7.15;;
64199;SDS011;50516;52.272;5.136;2022-10-31T02:24:23;9.27;;;6.10;;
64199;SDS011;50516;52.272;5.136;2022-10-31T02:32:42;11.32;;;6.70;;
64199;SDS011;50516;52.272;5.136;2022-10-31T02:35:11;10.90;;;6.95;;
64199;SDS011;50516;52.272;5.136;2022-10-31T02:40:25;9.55;;;5.88;;
64199;SDS011;50516;52.272;5.136;2022-10-31T02:48:27;12.40;;;7.50;;
64199;SDS011;50516;52.272;5.136;2022-10-31T02:50:55;11.57;;;7.03;;
64199;SDS011;50516;52.272;5.136;2022-10-31T02:53:24;15.20;;;8.20;;
64199;SDS011;50516;52.272;5.136;2022-10-31T02:58:24;16.08;;;8.23;;
64199;SDS011;50516;52.272;5.136;2022-10-31T03:03:41;12.77;;;7.75;;
64199;SDS011;50516;52.272;5.136;2022-10-31T03:06:14;13.18;;;6.45;;
64199;SDS011;50516;52.272;5.136;2022-10-31T03:09:00;12.63;;;7.60;;
64199;SDS011;50516;52.272;5.136;2022-10-31T03:11:43;13.00;;;7.65;;
64199;SDS011;50516;52.272;5.136;2022-10-31T03:14:24;11.38;;;6.32;;
64199;SDS011;50516;52.272;5.136;2022-10-31T03:16:56;10.05;;;7.22;;
64199;SDS011;50516;52.272;5.136;2022-10-31T03:19:29;9.05;;;7.05;;
64199;SDS011;50516;52.272;5.136;2022-10-31T03:21:58;10.35;;;7.13;;
64199;SDS011;50516;52.272;5.136;2022-10-31T03:24:26;10.73;;;7.15;;
64199;SDS011;50516;52.272;5.136;2022-10-31T03:26:55;11.57;;;7.72;;
64199;SDS011;50516;52.272;5.136;2022-10-31T03:29:23;13.68;;;6.90;;
64199;SDS011;50516;52.272;5.136;2022-10-31T03:32:04;13.23;;;8.07;;
64199;SDS011;50516;52.272;5.136;2022-10-31T03:34:34;13.32;;;8.13;;
64199;SDS011;50516;52.272;5.136;2022-10-31T03:37:03;10.30;;;7.22;;
64199;SDS011;50516;52.272;5.136;2022-10-31T03:39:31;13.48;;;7.80;;
64199;SDS011;50516;52.272;5.136;2022-10-31T03:44:32;12.60;;;7.70;;
64199;SDS011;50516;52.272;5.136;2022-10-31T03:46:59;13.15;;;7.35;;
64199;SDS011;50516;52.272;5.136;2022-10-31T03:49:26;15.68;;;8.50;;
64199;SDS011;50516;52.272;5.136;2022-10-31T03:51:57;14.18;;;7.47;;
64199;SDS011;50516;52.272;5.136;2022-10-31T03:57:24;12.57;;;7.40;;
64199;SDS011;50516;52.272;5.136;2022-10-31T04:00:00;12.23;;;8.07;;
64199;SDS011;50516;52.272;5.136;2022-10-31T04:02:30;16.98;;;9.13;;
64199;SDS011;50516;52.272;5.136;2022-10-31T04:04:58;10.70;;;8.30;;
64199;SDS011;50516;52.272;5.136;2022-10-31T04:07:26;16.27;;;8.60;;
64199;SDS011;50516;52.272;5.136;2022-10-31T04:09:55;11.85;;;8.40;;
64199;SDS011;50516;52.272;5.136;2022-10-31T04:12:22;14.60;;;8.30;;
64199;SDS011;50516;52.272;5.136;2022-10-31T04:14:50;15.23;;;7.93;;
64199;SDS011;50516;52.272;5.136;2022-10-31T04:17:17;14.68;;;8.15;;
64199;SDS011;50516;52.272;5.136;2022-10-31T04:19:46;12.23;;;7.53;;
64199;SDS011;50516;52.272;5.136;2022-10-31T04:22:11;9.70;;;8.15;;
64199;SDS011;50516;52.272;5.136;2022-10-31T04:24:37;14.27;;;8.05;;
64199;SDS011;50516;52.272;5.136;2022-10-31T04:27:04;14.25;;;9.60;;
64199;SDS011;50516;52.272;5.136;2022-10-31T04:29:30;12.68;;;8.65;;
64199;SDS011;50516;52.272;5.136;2022-10-31T04:31:55;15.40;;;9.88;;
64199;SDS011;50516;52.272;5.136;2022-10-31T04:34:20;13.07;;;8.75;;
64199;SDS011;50516;52.272;5.136;2022-10-31T04:36:46;16.73;;;9.70;;
64199;SDS011;50516;52.272;5.136;2022-10-31T04:39:11;16.23;;;9.88;;
64199;SDS011;50516;52.272;5.136;2022-10-31T04:41:36;17.67;;;10.80;;
64199;SDS011;50516;52.272;5.136;2022-10-31T04:44:01;15.27;;;9.43;;
64199;SDS011;50516;52.272;5.136;2022-10-31T04:46:27;17.05;;;10.63;;
64199;SDS011;50516;52.272;5.136;2022-10-31T04:48:52;22.50;;;11.30;;
64199;SDS011;50516;52.272;5.136;2022-10-31T04:51:18;17.42;;;12.13;;
64199;SDS011;50516;52.272;5.136;2022-10-31T04:53:43;15.75;;;10.43;;
64199;SDS011;50516;52.272;5.136;2022-10-31T04:56:08;13.35;;;9.52;;
64199;SDS011;50516;52.272;5.136;2022-10-31T04:58:33;16.38;;;10.75;;
64199;SDS011;50516;52.272;5.136;2022-10-31T05:00:59;15.77;;;10.68;;
64199;SDS011;50516;52.272;5.136;2022-10-31T05:03:24;13.15;;;9.50;;
64199;SDS011;50516;52.272;5.136;2022-10-31T05:05:49;14.02;;;9.75;;
64199;SDS011;50516;52.272;5.136;2022-10-31T05:08:15;19.92;;;12.48;;
64199;SDS011;50516;52.272;5.136;2022-10-31T05:10:40;14.98;;;10.55;;
64199;SDS011;50516;52.272;5.136;2022-10-31T05:13:06;19.60;;;10.60;;
64199;SDS011;50516;52.272;5.136;2022-10-31T05:15:31;18.58;;;13.20;;
64199;SDS011;50516;52.272;5.136;2022-10-31T05:17:57;16.45;;;11.13;;
64199;SDS011;50516;52.272;5.136;2022-10-31T05:20:24;20.40;;;11.65;;
64199;SDS011;50516;52.272;5.136;2022-10-31T05:22:52;17.92;;;12.38;;
64199;SDS011;50516;52.272;5.136;2022-10-31T05:25:19;18.70;;;11.63;;
64199;SDS011;50516;52.272;5.136;2022-10-31T05:27:46;18.88;;;12.10;;
64199;SDS011;50516;52.272;5.136;2022-10-31T05:30:14;16.33;;;11.18;;
64199;SDS011;50516;52.272;5.136;2022-10-31T05:32:41;17.35;;;11.07;;
64199;SDS011;50516;52.272;5.136;2022-10-31T05:35:15;19.65;;;12.43;;
64199;SDS011;50516;52.272;5.136;2022-10-31T05:37:42;18.33;;;11.45;;
64199;SDS011;50516;52.272;5.136;2022-10-31T05:40:08;16.20;;;11.70;;
64199;SDS011;50516;52.272;5.136;2022-10-31T05:42:37;18.45;;;13.10;;
64199;SDS011;50516;52.272;5.136;2022-10-31T05:45:04;24.05;;;14.00;;
64199;SDS011;50516;52.272;5.136;2022-10-31T05:47:30;19.70;;;14.27;;
64199;SDS011;50516;52.272;5.136;2022-10-31T05:49:55;22.65;;;13.65;;
64199;SDS011;50516;52.272;5.136;2022-10-31T05:52:21;19.95;;;12.63;;
64199;SDS011;50516;52.272;5.136;2022-10-31T05:54:46;19.90;;;12.52;;
64199;SDS011;50516;52.272;5.136;2022-10-31T05:57:11;16.13;;;11.60;;
64199;SDS011;50516;52.272;5.136;2022-10-31T05:59:36;20.60;;;12.82;;
64199;SDS011;50516;52.272;5.136;2022-10-31T06:02:02;20.00;;;13.43;;
64199;SDS011;50516;52.272;5.136;2022-10-31T06:04:27;20.10;;;12.10;;
64199;SDS011;50516;52.272;5.136;2022-10-31T06:06:53;18.48;;;12.13;;
64199;SDS011;50516;52.272;5.136;2022-10-31T06:09:18;21.20;;;12.90;;
64199;SDS011;50516;52.272;5.136;2022-10-31T06:11:44;16.85;;;12.90;;
64199;SDS011;50516;52.272;5.136;2022-10-31T06:14:09;18.77;;;12.60;;
64199;SDS011;50516;52.272;5.136;2022-10-31T06:16:34;21.98;;;12.70;;
64199;SDS011;50516;52.272;5.136;2022-10-31T06:19:00;15.70;;;12.40;;
64199;SDS011;50516;52.272;5.136;2022-10-31T06:21:25;19.48;;;13.43;;
64199;SDS011;50516;52.272;5.136;2022-10-31T06:23:50;20.95;;;13.05;;
64199;SDS011;50516;52.272;5.136;2022-10-31T06:26:16;24.38;;;13.02;;
64199;SDS011;50516;52.272;5.136;2022-10-31T06:28:41;24.88;;;13.65;;
64199;SDS011;50516;52.272;5.136;2022-10-31T06:31:06;21.42;;;13.77;;
64199;SDS011;50516;52.272;5.136;2022-10-31T06:33:32;21.45;;;13.07;;
64199;SDS011;50516;52.272;5.136;2022-10-31T06:35:58;16.48;;;11.55;;
64199;SDS011;50516;52.272;5.136;2022-10-31T06:38:24;18.60;;;12.77;;
64199;SDS011;50516;52.272;5.136;2022-10-31T06:40:51;20.70;;;12.85;;
64199;SDS011;50516;52.272;5.136;2022-10-31T06:43:16;17.50;;;12.30;;
64199;SDS011;50516;52.272;5.136;2022-10-31T06:45:41;18.35;;;12.88;;
64199;SDS011;50516;52.272;5.136;2022-10-31T06:48:07;22.42;;;12.75;;
64199;SDS011;50516;52.272;5.136;2022-10-31T06:50:33;20.58;;;13.00;;
64199;SDS011;50516;52.272;5.136;2022-10-31T06:52:58;20.85;;;13.18;;
64199;SDS011;50516;52.272;5.136;2022-10-31T06:55:24;20.73;;;13.93;;
64199;SDS011;50516;52.272;5.136;2022-10-31T06:57:51;20.35;;;12.18;;
64199;SDS011;50516;52.272;5.136;2022-10-31T07:00:17;22.38;;;14.90;;
64199;SDS011;50516;52.272;5.136;2022-10-31T07:02:43;17.60;;;12.65;;
64199;SDS011;50516;52.272;5.136;2022-10-31T07:05:08;21.60;;;13.80;;
64199;SDS011;50516;52.272;5.136;2022-10-31T07:07:34;19.42;;;13.30;;
64199;SDS011;50516;52.272;5.136;2022-10-31T07:09:59;20.38;;;12.98;;
64199;SDS011;50516;52.272;5.136;2022-10-31T07:12:24;25.65;;;15.10;;
64199;SDS011;50516;52.272;5.136;2022-10-31T07:14:50;25.55;;;14.95;;
64199;SDS011;50516;52.272;5.136;2022-10-31T07:17:15;28.85;;;15.60;;
64199;SDS011;50516;52.272;5.136;2022-10-31T07:19:41;24.83;;;15.52;;
64199;SDS011;50516;52.272;5.136;2022-10-31T07:22:06;20.77;;;15.50;;
64199;SDS011;50516;52.272;5.136;2022-10-31T07:24:31;23.52;;;15.43;;
64199;SDS011;50516;52.272;5.136;2022-10-31T07:26:56;27.10;;;15.20;;
64199;SDS011;50516;52.272;5.136;2022-10-31T07:29:22;27.33;;;16.55;;
64199;SDS011;50516;52.272;5.136;2022-10-31T07:31:47;26.63;;;15.90;;
64199;SDS011;50516;52.272;5.136;2022-10-31T07:34:12;27.90;;;17.08;;
64199;SDS011;50516;52.272;5.136;2022-10-31T07:36:38;22.40;;;16.45;;
64199;SDS011;50516;52.272;5.136;2022-10-31T07:39:04;28.88;;;17.52;;
64199;SDS011;50516;52.272;5.136;2022-10-31T07:41:29;23.33;;;15.85;;
64199;SDS011;50516;52.272;5.136;2022-10-31T07:43:55;25.75;;;16.33;;
64199;SDS011;50516;52.272;5.136;2022-10-31T07:46:21;23.75;;;16.95;;
64199;SDS011;50516;52.272;5.136;2022-10-31T07:48:47;24.08;;;16.55;;
64199;SDS011;50516;52.272;5.136;2022-10-31T07:51:12;28.05;;;17.38;;
64199;SDS011;50516;52.272;5.136;2022-10-31T07:53:37;25.63;;;17.67;;
64199;SDS011;50516;52.272;5.136;2022-10-31T07:56:03;27.98;;;16.00;;
64199;SDS011;50516;52.272;5.136;2022-10-31T07:58:28;27.58;;;16.00;;
64199;SDS011;50516;52.272;5.136;2022-10-31T08:00:54;32.75;;;17.58;;
64199;SDS011;50516;52.272;5.136;2022-10-31T08:03:19;29.65;;;17.45;;
64199;SDS011;50516;52.272;5.136;2022-10-31T08:05:45;23.10;;;16.55;;
64199;SDS011;50516;52.272;5.136;2022-10-31T08:08:11;29.88;;;16.55;;
64199;SDS011;50516;52.272;5.136;2022-10-31T08:10:37;26.30;;;18.45;;
64199;SDS011;50516;52.272;5.136;2022-10-31T08:13:06;30.48;;;18.38;;
64199;SDS011;50516;52.272;5.136;2022-10-31T08:15:33;23.85;;;17.15;;
64199;SDS011;50516;52.272;5.136;2022-10-31T08:18:02;26.98;;;17.75;;
64199;SDS011;50516;52.272;5.136;2022-10-31T08:20:27;24.65;;;17.95;;
64199;SDS011;50516;52.272;5.136;2022-10-31T08:22:53;27.15;;;18.02;;
64199;SDS011;50516;52.272;5.136;2022-10-31T08:25:19;28.30;;;17.77;;
64199;SDS011;50516;52.272;5.136;2022-10-31T08:27:48;28.58;;;19.02;;
64199;SDS011;50516;52.272;5.136;2022-10-31T08:30:14;26.90;;;18.20;;
64199;SDS011;50516;52.272;5.136;2022-10-31T08:32:39;31.80;;;18.38;;
64199;SDS011;50516;52.272;5.136;2022-10-31T08:35:05;25.17;;;18.65;;
64199;SDS011;50516;52.272;5.136;2022-10-31T08:37:30;27.30;;;16.20;;
64199;SDS011;50516;52.272;5.136;2022-10-31T08:39:56;26.80;;;18.00;;
64199;SDS011;50516;52.272;5.136;2022-10-31T08:42:21;26.17;;;18.02;;
64199;SDS011;50516;52.272;5.136;2022-10-31T08:44:46;27.90;;;18.38;;
64199;SDS011;50516;52.272;5.136;2022-10-31T08:47:12;27.73;;;18.02;;
64199;SDS011;50516;52.272;5.136;2022-10-31T08:49:37;23.13;;;17.30;;
64199;SDS011;50516;52.272;5.136;2022-10-31T08:52:02;25.60;;;18.08;;
64199;SDS011;50516;52.272;5.136;2022-10-31T08:54:28;29.02;;;17.63;;
64199;SDS011;50516;52.272;5.136;2022-10-31T08:56:54;23.42;;;16.65;;
64199;SDS011;50516;52.272;5.136;2022-10-31T08:59:23;26.02;;;17.45;;
64199;SDS011;50516;52.272;5.136;2022-10-31T09:01:48;25.27;;;17.40;;
64199;SDS011;50516;52.272;5.136;2022-10-31T09:04:14;25.08;;;16.98;;
64199;SDS011;50516;52.272;5.136;2022-10-31T09:06:39;19.50;;;15.35;;
64199;SDS011;50516;52.272;5.136;2022-10-31T09:09:05;21.92;;;16.20;;
64199;SDS011;50516;52.272;5.136;2022-10-31T09:11:30;25.27;;;16.25;;
64199;SDS011;50516;52.272;5.136;2022-10-31T09:13:56;26.98;;;16.90;;
64199;SDS011;50516;52.272;5.136;2022-10-31T09:16:21;27.75;;;17.17;;
64199;SDS011;50516;52.272;5.136;2022-10-31T09:18:46;26.42;;;16.63;;
64199;SDS011;50516;52.272;5.136;2022-10-31T09:21:12;28.42;;;17.20;;
64199;SDS011;50516;52.272;5.136;2022-10-31T09:23:37;27.42;;;16.48;;
64199;SDS011;50516;52.272;5.136;2022-10-31T09:26:02;27.45;;;16.95;;
64199;SDS011;50516;52.272;5.136;2022-10-31T09:28:28;26.48;;;17.25;;
64199;SDS011;50516;52.272;5.136;2022-10-31T09:30:54;28.17;;;17.67;;
64199;SDS011;50516;52.272;5.136;2022-10-31T09:33:19;31.83;;;18.08;;
64199;SDS011;50516;52.272;5.136;2022-10-31T09:35:45;32.40;;;20.13;;
64199;SDS011;50516;52.272;5.136;2022-10-31T09:38:15;29.90;;;19.17;;
64199;SDS011;50516;52.272;5.136;2022-10-31T09:40:48;30.55;;;19.08;;
64199;SDS011;50516;52.272;5.136;2022-10-31T09:46:00;33.30;;;20.25;;
64199;SDS011;50516;52.272;5.136;2022-10-31T09:51:24;33.88;;;20.10;;
64199;SDS011;50516;52.272;5.136;2022-10-31T09:53:57;28.92;;;18.98;;
64199;SDS011;50516;52.272;5.136;2022-10-31T09:56:28;36.30;;;22.05;;
64199;SDS011;50516;52.272;5.136;2022-10-31T09:58:57;30.00;;;19.83;;
64199;SDS011;50516;52.272;5.136;2022-10-31T10:04:28;29.75;;;20.77;;
64199;SDS011;50516;52.272;5.136;2022-10-31T10:06:57;29.85;;;20.50;;
64199;SDS011;50516;52.272;5.136;2022-10-31T10:09:26;34.63;;;20.33;;
64199;SDS011;50516;52.272;5.136;2022-10-31T10:11:58;33.53;;;20.20;;
64199;SDS011;50516;52.272;5.136;2022-10-31T10:25:23;29.50;;;18.33;;
64199;SDS011;50516;52.272;5.136;2022-10-31T10:30:44;25.65;;;17.65;;
64199;SDS011;50516;52.272;5.136;2022-10-31T10:33:14;29.27;;;17.42;;
64199;SDS011;50516;52.272;5.136;2022-10-31T10:36:09;27.67;;;16.38;;
64199;SDS011;50516;52.272;5.136;2022-10-31T10:41:12;25.25;;;16.13;;
64199;SDS011;50516;52.272;5.136;2022-10-31T10:43:42;25.65;;;16.15;;
64199;SDS011;50516;52.272;5.136;2022-10-31T10:51:44;22.30;;;13.88;;
64199;SDS011;50516;52.272;5.136;2022-10-31T10:59:25;17.15;;;11.55;;
64199;SDS011;50516;52.272;5.136;2022-10-31T11:01:52;15.73;;;9.88;;
64199;SDS011;50516;52.272;5.136;2022-10-31T11:04:25;15.10;;;9.18;;
64199;SDS011;50516;52.272;5.136;2022-10-31T11:07:04;20.30;;;10.65;;
64199;SDS011;50516;52.272;5.136;2022-10-31T11:09:31;16.33;;;10.45;;
64199;SDS011;50516;52.272;5.136;2022-10-31T11:11:58;16.33;;;9.32;;
64199;SDS011;50516;52.272;5.136;2022-10-31T11:14:24;16.23;;;9.25;;
64199;SDS011;50516;52.272;5.136;2022-10-31T11:16:52;12.25;;;9.50;;
64199;SDS011;50516;52.272;5.136;2022-10-31T11:19:32;21.75;;;11.15;;
64199;SDS011;50516;52.272;5.136;2022-10-31T11:22:07;19.77;;;11.18;;
64199;SDS011;50516;52.272;5.136;2022-10-31T11:24:40;16.17;;;10.90;;
64199;SDS011;50516;52.272;5.136;2022-10-31T11:27:16;16.02;;;11.70;;
64199;SDS011;50516;52.272;5.136;2022-10-31T11:29:46;18.42;;;10.98;;
64199;SDS011;50516;52.272;5.136;2022-10-31T11:32:16;18.95;;;11.95;;
64199;SDS011;50516;52.272;5.136;2022-10-31T11:34:48;18.13;;;11.52;;
64199;SDS011;50516;52.272;5.136;2022-10-31T11:37:27;21.55;;;12.68;;
64199;SDS011;50516;52.272;5.136;2022-10-31T11:39:55;19.90;;;12.85;;
64199;SDS011;50516;52.272;5.136;2022-10-31T11:42:24;21.00;;;12.40;;
64199;SDS011;50516;52.272;5.136;2022-10-31T11:44:52;17.27;;;12.60;;
64199;SDS011;50516;52.272;5.136;2022-10-31T11:47:25;19.08;;;13.30;;
64199;SDS011;50516;52.272;5.136;2022-10-31T11:49:53;20.60;;;13.40;;
64199;SDS011;50516;52.272;5.136;2022-10-31T11:52:24;21.17;;;15.10;;
64199;SDS011;50516;52.272;5.136;2022-10-31T11:54:56;20.33;;;13.35;;
64199;SDS011;50516;52.272;5.136;2022-10-31T11:57:29;25.08;;;15.57;;
64199;SDS011;50516;52.272;5.136;2022-10-31T11:59:55;21.88;;;14.45;;
64199;SDS011;50516;52.272;5.136;2022-10-31T12:02:23;26.70;;;16.70;;
64199;SDS011;50516;52.272;5.136;2022-10-31T12:05:00;28.20;;;16.42;;
64199;SDS011;50516;52.272;5.136;2022-10-31T12:07:32;26.85;;;15.88;;
64199;SDS011;50516;52.272;5.136;2022-10-31T12:09:58;26.83;;;15.55;;
64199;SDS011;50516;52.272;5.136;2022-10-31T12:15:24;27.25;;;16.27;;
64199;SDS011;50516;52.272;5.136;2022-10-31T12:18:01;23.85;;;17.17;;
64199;SDS011;50516;52.272;5.136;2022-10-31T12:45:18;28.73;;;18.10;;
64199;SDS011;50516;52.272;5.136;2022-10-31T12:47:55;30.48;;;18.52;;
64199;SDS011;50516;52.272;5.136;2022-10-31T13:02:16;34.25;;;21.42;;
64199;SDS011;50516;52.272;5.136;2022-10-31T13:04:50;39.55;;;23.88;;
64199;SDS011;50516;52.272;5.136;2022-10-31T13:07:22;39.28;;;22.90;;
64199;SDS011;50516;52.272;5.136;2022-10-31T13:10:04;38.45;;;23.20;;
64199;SDS011;50516;52.272;5.136;2022-10-31T13:12:32;36.45;;;22.65;;
64199;SDS011;50516;52.272;5.136;2022-10-31T13:15:01;35.80;;;21.70;;
64199;SDS011;50516;52.272;5.136;2022-10-31T13:17:38;37.25;;;22.35;;
64199;SDS011;50516;52.272;5.136;2022-10-31T13:20:13;40.13;;;22.88;;
64199;SDS011;50516;52.272;5.136;2022-10-31T13:22:42;39.28;;;23.25;;
64199;SDS011;50516;52.272;5.136;2022-10-31T13:25:13;39.78;;;23.42;;
64199;SDS011;50516;52.272;5.136;2022-10-31T13:27:46;42.60;;;23.98;;
64199;SDS011;50516;52.272;5.136;2022-10-31T13:30:16;37.95;;;24.75;;
64199;SDS011;50516;52.272;5.136;2022-10-31T13:33:14;43.70;;;25.20;;
64199;SDS011;50516;52.272;5.136;2022-10-31T13:38:24;42.25;;;23.50;;
64199;SDS011;50516;52.272;5.136;2022-10-31T13:41:06;36.63;;;23.13;;
64199;SDS011;50516;52.272;5.136;2022-10-31T13:46:26;34.28;;;21.95;;
64199;SDS011;50516;52.272;5.136;2022-10-31T13:49:04;37.92;;;22.52;;
64199;SDS011;50516;52.272;5.136;2022-10-31T13:51:46;40.72;;;22.30;;
64199;SDS011;50516;52.272;5.136;2022-10-31T13:54:20;37.42;;;22.52;;
64199;SDS011;50516;52.272;5.136;2022-10-31T13:56:51;41.75;;;22.05;;
64199;SDS011;50516;52.272;5.136;2022-10-31T13:59:19;40.10;;;21.63;;
64199;SDS011;50516;52.272;5.136;2022-10-31T14:01:48;40.85;;;22.33;;
64199;SDS011;50516;52.272;5.136;2022-10-31T14:04:31;41.55;;;22.77;;
64199;SDS011;50516;52.272;5.136;2022-10-31T14:07:13;42.28;;;23.15;;
64199;SDS011;50516;52.272;5.136;2022-10-31T14:14:56;35.25;;;22.13;;
64199;SDS011;50516;52.272;5.136;2022-10-31T14:17:39;41.40;;;23.08;;
64199;SDS011;50516;52.272;5.136;2022-10-31T14:22:37;38.00;;;23.05;;
64199;SDS011;50516;52.272;5.136;2022-10-31T14:27:58;37.03;;;21.20;;
64199;SDS011;50516;52.272;5.136;2022-10-31T14:30:27;39.65;;;22.45;;
64199;SDS011;50516;52.272;5.136;2022-10-31T14:32:58;40.10;;;22.63;;
64199;SDS011;50516;52.272;5.136;2022-10-31T14:35:29;38.53;;;21.08;;
64199;SDS011;50516;52.272;5.136;2022-10-31T14:43:46;41.83;;;22.15;;
64199;SDS011;50516;52.272;5.136;2022-10-31T14:49:02;40.75;;;22.25;;
64199;SDS011;50516;52.272;5.136;2022-10-31T14:51:38;42.13;;;23.35;;
64199;SDS011;50516;52.272;5.136;2022-10-31T14:54:06;48.03;;;24.30;;
64199;SDS011;50516;52.272;5.136;2022-10-31T14:56:40;45.85;;;24.23;;
64199;SDS011;50516;52.272;5.136;2022-10-31T14:59:14;47.88;;;27.75;;
64199;SDS011;50516;52.272;5.136;2022-10-31T15:01:48;43.90;;;25.73;;
64199;SDS011;50516;52.272;5.136;2022-10-31T15:04:25;42.42;;;24.33;;
64199;SDS011;50516;52.272;5.136;2022-10-31T15:09:32;41.00;;;23.92;;
64199;SDS011;50516;52.272;5.136;2022-10-31T15:14:54;44.75;;;21.48;;
64199;SDS011;50516;52.272;5.136;2022-10-31T15:17:21;39.63;;;21.55;;
64199;SDS011;50516;52.272;5.136;2022-10-31T15:19:48;38.25;;;21.17;;
64199;SDS011;50516;52.272;5.136;2022-10-31T15:22:16;38.88;;;20.40;;
64199;SDS011;50516;52.272;5.136;2022-10-31T15:24:43;37.53;;;21.45;;
64199;SDS011;50516;52.272;5.136;2022-10-31T15:27:13;37.45;;;21.20;;
64199;SDS011;50516;52.272;5.136;2022-10-31T15:32:43;37.10;;;21.70;;
64199;SDS011;50516;52.272;5.136;2022-10-31T15:35:10;39.38;;;21.10;;
64199;SDS011;50516;52.272;5.136;2022-10-31T15:37:35;36.10;;;21.52;;
64199;SDS011;50516;52.272;5.136;2022-10-31T15:40:11;36.97;;;21.92;;
64199;SDS011;50516;52.272;5.136;2022-10-31T15:42:40;38.25;;;20.63;;
64199;SDS011;50516;52.272;5.136;2022-10-31T15:47:35;38.78;;;21.55;;
64199;SDS011;50516;52.272;5.136;2022-10-31T15:50:02;36.95;;;22.02;;
64199;SDS011;50516;52.272;5.136;2022-10-31T15:52:44;44.97;;;21.13;;
64199;SDS011;50516;52.272;5.136;2022-10-31T15:57:45;38.42;;;21.80;;
64199;SDS011;50516;52.272;5.136;2022-10-31T16:00:26;33.33;;;21.10;;
64199;SDS011;50516;52.272;5.136;2022-10-31T16:03:34;37.00;;;20.75;;
64199;SDS011;50516;52.272;5.136;2022-10-31T16:05:47;38.60;;;20.48;;
64199;SDS011;50516;52.272;5.136;2022-10-31T16:13:28;38.92;;;21.17;;
64199;SDS011;50516;52.272;5.136;2022-10-31T16:15:56;38.92;;;22.25;;
64199;SDS011;50516;52.272;5.136;2022-10-31T16:18:26;38.03;;;20.23;;
64199;SDS011;50516;52.272;5.136;2022-10-31T16:20:54;44.60;;;21.60;;
64199;SDS011;50516;52.272;5.136;2022-10-31T16:23:21;36.58;;;21.05;;
64199;SDS011;50516;52.272;5.136;2022-10-31T16:25:49;41.80;;;21.92;;
64199;SDS011;50516;52.272;5.136;2022-10-31T16:28:16;37.50;;;20.25;;
64199;SDS011;50516;52.272;5.136;2022-10-31T16:30:44;40.78;;;23.55;;
64199;SDS011;50516;52.272;5.136;2022-10-31T16:33:28;38.75;;;21.35;;
64199;SDS011;50516;52.272;5.136;2022-10-31T16:35:54;35.47;;;21.83;;
64199;SDS011;50516;52.272;5.136;2022-10-31T16:38:21;42.22;;;22.20;;
64199;SDS011;50516;52.272;5.136;2022-10-31T16:40:46;37.08;;;20.35;;
64199;SDS011;50516;52.272;5.136;2022-10-31T16:43:14;38.50;;;21.65;;
64199;SDS011;50516;52.272;5.136;2022-10-31T16:45:45;36.38;;;20.83;;
64199;SDS011;50516;52.272;5.136;2022-10-31T16:48:13;36.33;;;21.23;;
64199;SDS011;50516;52.272;5.136;2022-10-31T16:50:43;41.95;;;22.40;;
64199;SDS011;50516;52.272;5.136;2022-10-31T16:53:09;37.92;;;22.67;;
64199;SDS011;50516;52.272;5.136;2022-10-31T16:55:42;37.05;;;21.45;;
64199;SDS011;50516;52.272;5.136;2022-10-31T16:58:17;35.30;;;21.13;;
64199;SDS011;50516;52.272;5.136;2022-10-31T17:00:58;38.47;;;22.27;;